Time;durP1;ratioP1;P1;durP2;ratioP2;P2;SDS_P1;SDS_P2;PMS_P1;PMS_P2;Temp;Humidity;BMP_temperature;BMP_pressure;BME280_temperature;BME280_humidity;BME280_pressure;Samples;Min_cycle;Max_cycle;Signal;HPM_P1;HPM_P2
2022/07/09 00:01:02;;;;;;;3.70;2.05;;;;;;;;;;5046364;28;20052;-58
2022/07/09 00:03:44;;;;;;;3.90;1.63;;;;;;;;;;5055108;28;20037;-58
2022/07/09 00:06:39;;;;;;;4.20;2.42;;;;;;;;;;5055523;28;20044;-58
2022/07/09 00:09:06;;;;;;;4.90;1.85;;;;;;;;;;5001647;28;20104;-58
2022/07/09 00:11:41;;;;;;;4.07;1.83;;;;;;;;;;5055282;28;20082;-58
2022/07/09 00:14:34;;;;;;;4.55;1.90;;;;;;;;;;5055234;28;20375;-58
2022/07/09 00:19:56;;;;;;;3.85;1.73;;;;;;;;;;5054921;28;20078;-59
2022/07/09 00:23:11;;;;;;;;;;;;;;;;;;;;;
2022/07/09 00:25:44;;;;;;;3.75;2.08;;;;;;;;;;5019173;28;20036;-58
2022/07/09 00:28:11;;;;;;;4.43;1.98;;;;;;;;;;5054426;28;20018;-58
2022/07/09 00:30:47;;;;;;;;;;;;;;;;;;;;;
2022/07/09 00:33:26;;;;;;;3.20;2.00;;;;;;;;;;5054289;28;20108;-58
2022/07/09 00:36:08;;;;;;;4.85;2.25;;;;;;;;;;5053538;28;20052;-59
2022/07/09 00:39:11;;;;;;;3.80;2.17;;;;;;;;;;5055404;28;20033;-58
2022/07/09 00:41:53;;;;;;;3.33;2.47;;;;;;;;;;5053856;28;20086;-59
2022/07/09 00:44:22;;;;;;;4.32;1.95;;;;;;;;;;5055601;28;20466;-58
2022/07/09 00:47:04;;;;;;;6.13;2.05;;;;;;;;;;5055336;28;20037;-58
2022/07/09 00:49:49;;;;;;;5.80;2.13;;;;;;;;;;5055621;28;20071;-58
2022/07/09 00:52:39;;;;;;;3.05;2.03;;;;;;;;;;5054943;28;20502;-58
2022/07/09 00:55:31;;;;;;;5.43;2.28;;;;;;;;;;5055034;28;20116;-60
2022/07/09 00:58:36;;;;;;;4.70;2.80;;;;;;;;;;5054949;28;20036;-59
2022/07/09 01:01:21;;;;;;;5.13;2.50;;;;;;;;;;4992484;28;20468;-58
2022/07/09 01:04:05;;;;;;;3.58;2.35;;;;;;;;;;4992367;28;20377;-58
2022/07/09 01:09:42;;;;;;;5.07;2.72;;;;;;;;;;5054571;28;20046;-58
2022/07/09 01:15:32;;;;;;;4.20;2.10;;;;;;;;;;5035991;28;20044;-58
2022/07/09 01:18:08;;;;;;;3.20;1.90;;;;;;;;;;5034632;28;20030;-58
2022/07/09 01:20:38;;;;;;;6.45;2.15;;;;;;;;;;5034563;28;20025;-58
2022/07/09 01:23:30;;;;;;;6.47;2.53;;;;;;;;;;5034769;28;20022;-58
2022/07/09 01:32:05;;;;;;;7.10;2.53;;;;;;;;;;5036600;28;20452;-58
2022/07/09 01:34:57;;;;;;;7.85;2.75;;;;;;;;;;5038377;28;20125;-58
2022/07/09 01:37:26;;;;;;;4.07;2.00;;;;;;;;;;5038095;28;20052;-58
2022/07/09 01:39:55;;;;;;;5.47;1.83;;;;;;;;;;5037858;28;20025;-58
2022/07/09 01:45:29;;;;;;;3.40;2.17;;;;;;;;;;5038427;28;20064;-59
2022/07/09 01:48:11;;;;;;;3.97;2.00;;;;;;;;;;5037708;28;20032;-58
2022/07/09 01:50:53;;;;;;;3.75;1.92;;;;;;;;;;5037480;28;20470;-58
2022/07/09 01:53:20;;;;;;;3.30;2.20;;;;;;;;;;5038712;28;20018;-58
2022/07/09 01:58:44;;;;;;;4.22;2.58;;;;;;;;;;5038895;28;20048;-58
2022/07/09 02:01:28;;;;;;;4.57;1.92;;;;;;;;;;5036126;28;20030;-58
2022/07/09 02:04:19;;;;;;;2.70;1.65;;;;;;;;;;5038689;28;20052;-58
2022/07/09 02:07:10;;;;;;;8.05;2.10;;;;;;;;;;5037973;28;20069;-58
2022/07/09 02:09:42;;;;;;;;;;;;;;;;;;5037042;28;20491;-58
2022/07/09 02:12:18;;;;;;;7.15;1.95;;;;;;;;;;5037013;28;19932;-58
2022/07/09 02:15:19;;;;;;;5.65;2.28;;;;;;;;;;5041640;28;20025;-58
2022/07/09 02:17:49;;;;;;;3.75;1.85;;;;;;;;;;5057173;28;20025;-58
2022/07/09 02:20:22;;;;;;;7.40;2.40;;;;;;;;;;5056467;28;20128;-58
2022/07/09 02:23:04;;;;;;;3.05;2.05;;;;;;;;;;5055701;28;20021;-58
2022/07/09 02:25:31;;;;;;;5.57;2.25;;;;;;;;;;5058049;28;20025;-58
2022/07/09 02:30:57;;;;;;;6.80;2.60;;;;;;;;;;5054056;28;20029;-58
2022/07/09 02:33:53;;;;;;;3.35;1.52;;;;;;;;;;5057587;28;20450;-58
2022/07/09 02:36:24;;;;;;;3.95;2.00;;;;;;;;;;5056041;28;20045;-58
2022/07/09 02:38:59;;;;;;;7.70;2.65;;;;;;;;;;5057561;28;20083;-58
2022/07/09 02:41:39;;;;;;;4.43;1.63;;;;;;;;;;5057293;28;20041;-58
2022/07/09 02:44:29;;;;;;;8.27;2.75;;;;;;;;;;5057471;28;20521;-58
2022/07/09 02:50:46;;;;;;;3.70;2.05;;;;;;;;;;5024922;28;20421;-58
2022/07/09 02:53:25;;;;;;;4.53;2.10;;;;;;;;;;5023304;28;20037;-58
2022/07/09 02:56:10;;;;;;;11.07;2.35;;;;;;;;;;5056678;28;20029;-58
2022/07/09 03:02:01;;;;;;;3.20;1.83;;;;;;;;;;5052669;28;20382;-58
2022/07/09 03:04:37;;;;;;;2.80;1.95;;;;;;;;;;5055581;28;20033;-58
2022/07/09 03:07:18;;;;;;;3.10;1.88;;;;;;;;;;5057570;28;20048;-58
2022/07/09 03:09:57;;;;;;;4.68;1.92;;;;;;;;;;5050931;28;20072;-58
2022/07/09 03:12:25;;;;;;;3.90;2.08;;;;;;;;;;5057310;28;20032;-58
2022/07/09 03:14:57;;;;;;;7.15;3.03;;;;;;;;;;5052248;28;20021;-58
2022/07/09 03:17:30;;;;;;;5.25;2.15;;;;;;;;;;5036553;28;20080;-58
2022/07/09 03:23:17;;;;;;;3.65;2.15;;;;;;;;;;5036333;28;20032;-58
2022/07/09 03:25:52;;;;;;;3.53;2.05;;;;;;;;;;5036673;28;20033;-58
2022/07/09 03:28:43;;;;;;;3.30;1.98;;;;;;;;;;5036968;28;20051;-58
2022/07/09 03:31:12;;;;;;;;;;;;;;;;;;5030410;28;20471;-58
2022/07/09 03:33:47;;;;;;;6.57;2.15;;;;;;;;;;5033870;28;19913;-58
2022/07/09 03:36:28;;;;;;;4.32;2.47;;;;;;;;;;5034011;28;20033;-58
2022/07/09 03:39:13;;;;;;;5.70;2.72;;;;;;;;;;5031066;28;20095;-58
2022/07/09 03:41:40;;;;;;;6.20;2.78;;;;;;;;;;5014616;28;20510;-58
2022/07/09 03:47:19;;;;;;;;;;;;;;;;;;;;;
2022/07/09 03:50:08;;;;;;;5.93;3.70;;;;;;;;;;5009584;28;20040;-58
2022/07/09 03:52:50;;;;;;;8.27;3.38;;;;;;;;;;4993996;28;20038;-58
2022/07/09 03:58:31;;;;;;;5.30;3.55;;;;;;;;;;5027837;28;20120;-58
2022/07/09 04:01:01;;;;;;;5.68;3.38;;;;;;;;;;5032756;28;20029;-58
2022/07/09 04:03:56;;;;;;;5.80;3.58;;;;;;;;;;5033436;28;20063;-58
2022/07/09 04:06:32;;;;;;;4.68;3.15;;;;;;;;;;5026966;28;20095;-58
2022/07/09 04:12:13;;;;;;;6.43;3.30;;;;;;;;;;5028717;28;20107;-58
2022/07/09 04:15:10;;;;;;;6.43;3.75;;;;;;;;;;5035715;28;20106;-58
2022/07/09 04:17:45;;;;;;;4.55;3.50;;;;;;;;;;5031495;28;20037;-58
2022/07/09 04:20:31;;;;;;;;;;;;;;;;;;;;;
2022/07/09 04:23:19;;;;;;;5.57;3.08;;;;;;;;;;5032186;28;20032;-58
2022/07/09 04:28:38;;;;;;;4.00;3.17;;;;;;;;;;5024975;28;20048;-58
2022/07/09 04:31:08;;;;;;;4.43;3.17;;;;;;;;;;5031410;28;20018;-58
2022/07/09 04:33:43;;;;;;;3.85;3.45;;;;;;;;;;5032421;28;20034;-58
2022/07/09 04:36:38;;;;;;;4.32;3.38;;;;;;;;;;5032214;28;20037;-58
2022/07/09 04:39:27;;;;;;;;;;;;;;;;;;;;;
2022/07/09 04:42:05;;;;;;;3.40;2.78;;;;;;;;;;5031551;28;20026;-58
2022/07/09 04:44:45;;;;;;;3.90;2.92;;;;;;;;;;5030427;28;20025;-58
2022/07/09 04:47:26;;;;;;;5.22;3.47;;;;;;;;;;5032449;28;20387;-58
2022/07/09 04:50:34;;;;;;;4.78;3.67;;;;;;;;;;5021619;28;20045;-58
2022/07/09 04:53:21;;;;;;;9.90;3.67;;;;;;;;;;5009038;28;20060;-58
2022/07/09 04:56:21;;;;;;;;;;;;;;;;;;;;;
2022/07/09 04:59:19;;;;;;;6.03;3.88;;;;;;;;;;5009773;28;20429;-58
2022/07/09 05:05:22;;;;;;;4.53;3.72;;;;;;;;;;5012841;28;20458;-58
2022/07/09 05:07:56;;;;;;;6.97;3.67;;;;;;;;;;4989921;28;20132;-58
2022/07/09 05:10:38;;;;;;;7.72;3.38;;;;;;;;;;5027924;28;20040;-58
2022/07/09 05:13:13;;;;;;;8.70;3.58;;;;;;;;;;5032094;28;20025;-58
2022/07/09 05:18:47;;;;;;;;;;;;;;;;;;;;;
2022/07/09 05:21:45;;;;;;;;;;;;;;;;;;;;;
2022/07/09 05:24:23;;;;;;;7.88;3.50;;;;;;;;;;5027458;28;20048;-60
2022/07/09 05:26:50;;;;;;;6.18;3.25;;;;;;;;;;5030518;28;20042;-58
2022/07/09 05:29:24;;;;;;;6.57;3.20;;;;;;;;;;5031697;28;20148;-58
2022/07/09 05:32:03;;;;;;;;;;;;;;;;;;;;;
2022/07/09 05:34:33;;;;;;;4.50;4.07;;;;;;;;;;5025839;28;20067;-58
2022/07/09 05:37:31;;;;;;;11.88;4.35;;;;;;;;;;5031032;28;20383;-58
2022/07/09 05:40:08;;;;;;;4.88;3.33;;;;;;;;;;5022802;28;20037;-58
2022/07/09 05:45:45;;;;;;;7.20;3.77;;;;;;;;;;5008997;28;20034;-58
2022/07/09 05:48:36;;;;;;;6.35;3.15;;;;;;;;;;5012111;28;20472;-59
2022/07/09 05:51:19;;;;;;;;;;;;;;;;;;;;;
2022/07/09 05:53:46;;;;;;;9.93;3.40;;;;;;;;;;5028304;28;20128;-58
2022/07/09 05:56:38;;;;;;;;;;;;;;;;;;;;;
2022/07/09 05:59:08;;;;;;;4.68;3.00;;;;;;;;;;5028810;28;20383;-58
2022/07/09 06:01:50;;;;;;;3.83;2.40;;;;;;;;;;4991319;28;20080;-59
2022/07/09 06:04:39;;;;;;;6.07;3.20;;;;;;;;;;4987749;28;20037;-58
2022/07/09 06:07:19;;;;;;;4.13;2.77;;;;;;;;;;5019059;28;20073;-58
2022/07/09 06:12:53;;;;;;;5.07;3.20;;;;;;;;;;5025420;28;20116;-58
2022/07/09 06:15:57;;;;;;;;;;;;;;;;;;;;;
2022/07/09 06:21:30;;;;;;;6.85;3.65;;;;;;;;;;5007956;28;20026;-59
2022/07/09 06:24:05;;;;;;;5.25;3.20;;;;;;;;;;5012811;28;20022;-59
2022/07/09 06:27:13;;;;;;;3.92;2.70;;;;;;;;;;5037659;28;20034;-59
2022/07/09 06:29:45;;;;;;;4.38;2.83;;;;;;;;;;5014699;28;20030;-59
2022/07/09 06:32:18;;;;;;;10.35;3.08;;;;;;;;;;5026519;28;20037;-59
2022/07/09 06:34:56;;;;;;;9.68;2.70;;;;;;;;;;5032990;28;20420;-59
2022/07/09 06:37:33;;;;;;;6.47;3.28;;;;;;;;;;5035058;28;20041;-59
2022/07/09 06:40:36;;;;;;;6.32;3.28;;;;;;;;;;5034339;28;20079;-59
2022/07/09 06:43:09;;;;;;;7.35;3.00;;;;;;;;;;5033435;28;20128;-59
2022/07/09 06:45:52;;;;;;;10.05;3.85;;;;;;;;;;5027787;28;20033;-59
2022/07/09 06:48:30;;;;;;;5.00;3.08;;;;;;;;;;5033153;28;20383;-59
2022/07/09 06:54:09;;;;;;;;;;;;;;;;;;;;;
2022/07/09 06:56:50;;;;;;;5.38;2.95;;;;;;;;;;5014358;28;20406;-59
2022/07/09 06:59:35;;;;;;;4.63;3.05;;;;;;;;;;5029334;28;20494;-59
2022/07/09 07:02:20;;;;;;;5.75;3.13;;;;;;;;;;5026009;28;20506;-61
2022/07/09 07:04:58;;;;;;;5.88;2.50;;;;;;;;;;5031595;28;20061;-59
2022/07/09 07:07:30;;;;;;;5.43;2.65;;;;;;;;;;5032104;28;20467;-59
2022/07/09 07:22:34;;;;;;;6.05;2.78;;;;;;;;;;4991374;28;20080;-59
2022/07/09 07:25:16;;;;;;;3.50;2.22;;;;;;;;;;4976216;28;20139;-59
2022/07/09 07:27:55;;;;;;;;;;;;;;;;;;;;;
2022/07/09 07:30:28;;;;;;;5.60;2.58;;;;;;;;;;5010645;28;20410;-59
2022/07/09 07:33:06;;;;;;;10.00;2.72;;;;;;;;;;5033133;28;20098;-59
2022/07/09 07:36:03;;;;;;;7.32;2.45;;;;;;;;;;5032320;28;20042;-59
2022/07/09 07:38:47;;;;;;;3.42;2.08;;;;;;;;;;5033318;28;20108;-59
2022/07/09 07:41:28;;;;;;;2.58;2.15;;;;;;;;;;5029413;28;20387;-59
2022/07/09 07:47:04;;;;;;;8.30;2.35;;;;;;;;;;5026664;28;20268;-59
2022/07/09 07:49:33;;;;;;;2.67;1.98;;;;;;;;;;5038238;28;20071;-59
2022/07/09 07:52:16;;;;;;;;;;;;;;;;;;;;;
2022/07/09 07:54:48;;;;;;;3.83;1.70;;;;;;;;;;5017831;28;20064;-59
2022/07/09 07:57:23;;;;;;;3.25;1.77;;;;;;;;;;5041828;28;20491;-59
2022/07/09 08:02:38;;;;;;;4.35;2.13;;;;;;;;;;5028678;28;20482;-60
2022/07/09 08:07:57;;;;;;;2.97;1.60;;;;;;;;;;5023249;28;20026;-60
2022/07/09 08:11:01;;;;;;;3.70;1.70;;;;;;;;;;5026870;28;20028;-60
2022/07/09 08:13:39;;;;;;;2.33;1.33;;;;;;;;;;5003270;28;20029;-60
2022/07/09 08:16:28;;;;;;;5.50;1.73;;;;;;;;;;5026252;28;20045;-60
2022/07/09 08:19:04;;;;;;;5.68;1.52;;;;;;;;;;5020205;28;20093;-60
2022/07/09 08:22:05;;;;;;;2.97;1.23;;;;;;;;;;5027437;28;20505;-60
2022/07/09 08:24:34;;;;;;;;;;;;;;;;;;5015693;28;20260;-60
2022/07/09 08:27:11;;;;;;;2.70;1.30;;;;;;;;;;5057756;28;19992;-60
2022/07/09 08:29:43;;;;;;;2.80;1.02;;;;;;;;;;5032030;28;20516;-62
2022/07/09 08:32:22;;;;;;;6.38;0.93;;;;;;;;;;5024567;28;20040;-60
2022/07/09 08:35:27;;;;;;;5.57;1.30;;;;;;;;;;5022513;28;20037;-60
2022/07/09 08:38:04;;;;;;;2.95;1.48;;;;;;;;;;5027750;28;20048;-60
2022/07/09 08:40:45;;;;;;;2.47;0.85;;;;;;;;;;5028544;28;20033;-60
2022/07/09 08:43:15;;;;;;;2.50;1.15;;;;;;;;;;5030939;28;20035;-60
2022/07/09 08:48:56;;;;;;;4.78;1.05;;;;;;;;;;4989526;28;20029;-60
2022/07/09 08:51:30;;;;;;;4.47;1.70;;;;;;;;;;5022518;28;20522;-60
2022/07/09 08:54:32;;;;;;;2.28;1.08;;;;;;;;;;5032135;28;20033;-60
2022/07/09 08:57:05;;;;;;;2.17;1.58;;;;;;;;;;5031785;28;20113;-58
2022/07/09 08:59:38;;;;;;;1.83;0.80;;;;;;;;;;5030302;28;20091;-58
2022/07/09 09:02:51;;;;;;;1.77;1.02;;;;;;;;;;5028144;28;20529;-59
2022/07/09 09:05:48;;;;;;;3.38;1.33;;;;;;;;;;5026064;28;20034;-59
2022/07/09 09:08:19;;;;;;;4.07;1.27;;;;;;;;;;5031769;28;20105;-59
2022/07/09 09:16:44;;;;;;;2.00;1.10;;;;;;;;;;5006714;28;20085;-59
2022/07/09 09:19:27;;;;;;;3.75;1.90;;;;;;;;;;5031107;28;20049;-59
2022/07/09 09:21:55;;;;;;;5.25;2.80;;;;;;;;;;5029556;28;20091;-59
2022/07/09 09:24:30;;;;;;;4.35;1.40;;;;;;;;;;5031748;28;20025;-59
2022/07/09 09:27:31;;;;;;;;;;;;;;;;;;;;;
2022/07/09 09:30:15;;;;;;;5.07;1.45;;;;;;;;;;5015437;28;20394;-59
2022/07/09 09:32:44;;;;;;;1.73;1.05;;;;;;;;;;5027853;28;20495;-59
2022/07/09 09:35:22;;;;;;;5.57;1.33;;;;;;;;;;5031162;28;20060;-59
2022/07/09 09:37:58;;;;;;;2.17;1.17;;;;;;;;;;5030224;28;20029;-59
2022/07/09 09:40:32;;;;;;;2.60;1.40;;;;;;;;;;5026603;28;20037;-59
2022/07/09 09:43:31;;;;;;;1.05;0.57;;;;;;;;;;5028910;28;20022;-59
2022/07/09 09:46:10;;;;;;;2.72;1.55;;;;;;;;;;5028965;28;20491;-59
2022/07/09 09:48:49;;;;;;;2.10;0.90;;;;;;;;;;5031504;28;20038;-60
2022/07/09 09:54:28;;;;;;;3.75;1.00;;;;;;;;;;5024934;28;20029;-59
2022/07/09 09:57:06;;;;;;;1.98;1.23;;;;;;;;;;5030937;28;20490;-59
2022/07/09 10:02:26;;;;;;;2.08;0.95;;;;;;;;;;5031890;28;20055;-59
2022/07/09 10:04:55;;;;;;;2.90;1.38;;;;;;;;;;5033933;28;20045;-59
2022/07/09 10:07:37;;;;;;;;;;;;;;;;;;;;;
2022/07/09 10:10:07;;;;;;;2.80;1.40;;;;;;;;;;5031727;28;20038;-59
2022/07/09 10:12:39;;;;;;;4.95;1.23;;;;;;;;;;5032601;28;20479;-59
2022/07/09 10:15:27;;;;;;;2.55;1.48;;;;;;;;;;5033609;28;20030;-59
2022/07/09 10:18:01;;;;;;;3.03;1.20;;;;;;;;;;5032581;28;20067;-59
2022/07/09 10:20:46;;;;;;;3.33;1.42;;;;;;;;;;5031923;28;20269;-59
2022/07/09 10:23:24;;;;;;;1.63;0.82;;;;;;;;;;5032786;28;20029;-59
2022/07/09 10:26:02;;;;;;;2.05;1.30;;;;;;;;;;5033583;28;20116;-59
2022/07/09 10:28:52;;;;;;;2.75;1.23;;;;;;;;;;5034208;28;20025;-59
2022/07/09 10:31:21;;;;;;;3.55;1.23;;;;;;;;;;5031206;28;20014;-59
2022/07/09 10:36:56;;;;;;;4.55;1.63;;;;;;;;;;5034306;28;20083;-59
2022/07/09 10:39:41;;;;;;;;;;;;;;;;;;;;;
2022/07/09 10:42:20;;;;;;;2.50;1.35;;;;;;;;;;5024420;28;20048;-59
2022/07/09 10:44:57;;;;;;;3.22;1.83;;;;;;;;;;5027030;28;20041;-59
2022/07/09 10:47:46;;;;;;;2.20;1.05;;;;;;;;;;5034384;28;20057;-59
2022/07/09 10:50:28;;;;;;;6.90;2.08;;;;;;;;;;5033277;28;20036;-59
2022/07/09 10:53:08;;;;;;;2.33;1.45;;;;;;;;;;5032612;28;20022;-59
2022/07/09 10:55:50;;;;;;;2.20;1.38;;;;;;;;;;5063217;28;20052;-59
2022/07/09 10:58:24;;;;;;;2.47;0.70;;;;;;;;;;5032725;28;20111;-59
2022/07/09 11:01:10;;;;;;;3.38;0.95;;;;;;;;;;5031288;28;20037;-59
2022/07/09 11:03:36;;;;;;;2.08;1.20;;;;;;;;;;5029724;28;20035;-59
2022/07/09 11:06:08;;;;;;;3.95;1.40;;;;;;;;;;5032393;28;20510;-59
2022/07/09 11:08:40;;;;;;;2.38;1.15;;;;;;;;;;5031883;28;20471;-59
2022/07/09 11:11:09;;;;;;;1.40;0.80;;;;;;;;;;5030968;28;20557;-59
2022/07/09 11:13:40;;;;;;;1.80;1.00;;;;;;;;;;5030835;28;20041;-59
2022/07/09 11:16:10;;;;;;;2.83;1.20;;;;;;;;;;5047847;28;20494;-59
2022/07/09 11:18:38;;;;;;;1.88;1.05;;;;;;;;;;5048442;28;20356;-59
2022/07/09 11:21:16;;;;;;;3.17;1.30;;;;;;;;;;5032708;28;20383;-59
2022/07/09 11:23:51;;;;;;;1.40;0.77;;;;;;;;;;5023708;28;20199;-59
2022/07/09 11:26:38;;;;;;;5.95;1.33;;;;;;;;;;5033848;28;20478;-59
2022/07/09 11:29:09;;;;;;;6.05;1.10;;;;;;;;;;5031508;28;20030;-59
2022/07/09 11:31:48;;;;;;;3.40;1.60;;;;;;;;;;5032709;28;20029;-59
2022/07/09 11:34:18;;;;;;;2.63;1.20;;;;;;;;;;5033563;28;20060;-59
2022/07/09 11:37:02;;;;;;;2.00;0.98;;;;;;;;;;5027640;28;20494;-59
2022/07/09 11:39:28;;;;;;;3.70;1.23;;;;;;;;;;5031473;28;20025;-59
2022/07/09 11:42:00;;;;;;;3.63;1.08;;;;;;;;;;5032419;28;20018;-59
2022/07/09 11:44:33;;;;;;;2.30;1.13;;;;;;;;;;5031527;28;20026;-60
2022/07/09 11:47:21;;;;;;;1.73;0.82;;;;;;;;;;5033335;28;20029;-59
2022/07/09 11:49:50;;;;;;;9.60;0.90;;;;;;;;;;5029683;28;20037;-60
2022/07/09 11:53:05;;;;;;;1.77;1.00;;;;;;;;;;5024933;28;20044;-60
2022/07/09 11:55:35;;;;;;;2.72;1.17;;;;;;;;;;5028617;28;20046;-60
2022/07/09 11:58:14;;;;;;;1.95;1.05;;;;;;;;;;5029474;28;20026;-60
2022/07/09 12:00:50;;;;;;;1.67;0.95;;;;;;;;;;5026929;28;20033;-60
2022/07/09 12:03:31;;;;;;;2.25;1.20;;;;;;;;;;5026856;28;20049;-60
2022/07/09 12:06:05;;;;;;;1.75;1.00;;;;;;;;;;5030849;28;20095;-60
2022/07/09 12:08:33;;;;;;;1.35;0.70;;;;;;;;;;5031159;28;20021;-60
2022/07/09 12:11:00;;;;;;;2.75;0.88;;;;;;;;;;5028738;28;20490;-60
2022/07/09 12:13:29;;;;;;;1.90;0.93;;;;;;;;;;5030030;28;20033;-60
2022/07/09 12:18:42;;;;;;;5.72;1.17;;;;;;;;;;5021314;28;20052;-60
2022/07/09 12:21:11;;;;;;;3.25;0.63;;;;;;;;;;5029352;28;20079;-60
2022/07/09 12:23:40;;;;;;;1.73;0.70;;;;;;;;;;5030302;28;20079;-60
2022/07/09 12:26:31;;;;;;;1.92;0.95;;;;;;;;;;5021898;28;20052;-60
2022/07/09 12:29:00;;;;;;;1.30;0.70;;;;;;;;;;5039651;28;20373;-60
2022/07/09 12:31:29;;;;;;;1.27;0.70;;;;;;;;;;5028543;28;20107;-60
2022/07/09 12:33:55;;;;;;;1.38;0.65;;;;;;;;;;5029559;28;20036;-60
2022/07/09 12:39:22;;;;;;;2.40;1.05;;;;;;;;;;5017915;28;20475;-60
2022/07/09 12:41:52;;;;;;;1.48;0.60;;;;;;;;;;5022132;28;20041;-60
2022/07/09 12:44:29;;;;;;;3.55;1.05;;;;;;;;;;5022982;28;20022;-60
2022/07/09 12:46:58;;;;;;;3.97;1.50;;;;;;;;;;5054222;28;20045;-61
2022/07/09 12:49:30;;;;;;;1.95;0.80;;;;;;;;;;5030275;28;20021;-60
2022/07/09 12:52:07;;;;;;;3.90;0.90;;;;;;;;;;5027111;28;20038;-60
2022/07/09 12:54:37;;;;;;;0.98;0.57;;;;;;;;;;5020166;28;20025;-58
2022/07/09 12:57:08;;;;;;;3.05;0.75;;;;;;;;;;5026301;28;20116;-60
2022/07/09 12:59:43;;;;;;;6.35;1.23;;;;;;;;;;5036081;28;20049;-60
2022/07/09 13:02:26;;;;;;;3.10;0.93;;;;;;;;;;5057040;28;20112;-60
2022/07/09 13:04:55;;;;;;;5.07;1.00;;;;;;;;;;5021803;28;20487;-60
2022/07/09 13:07:27;;;;;;;1.52;0.80;;;;;;;;;;5027549;28;20545;-60
2022/07/09 13:10:01;;;;;;;1.35;0.65;;;;;;;;;;5010870;28;20456;-60
2022/07/09 13:12:36;;;;;;;2.53;1.10;;;;;;;;;;5023645;28;20037;-60
2022/07/09 13:15:10;;;;;;;1.30;0.60;;;;;;;;;;5028384;28;20022;-60
2022/07/09 13:17:47;;;;;;;1.45;0.68;;;;;;;;;;5030226;28;20391;-58
2022/07/09 13:20:13;;;;;;;0.90;0.60;;;;;;;;;;5024418;28;20017;-58
2022/07/09 13:22:45;;;;;;;1.60;0.77;;;;;;;;;;5024380;28;20036;-58
2022/07/09 13:25:11;;;;;;;2.72;1.10;;;;;;;;;;5029264;28;20104;-58
2022/07/09 13:27:43;;;;;;;2.47;1.02;;;;;;;;;;5032673;28;20122;-58
2022/07/09 13:30:21;;;;;;;1.23;0.60;;;;;;;;;;5032560;28;20026;-58
2022/07/09 13:32:54;;;;;;;2.30;1.10;;;;;;;;;;5028329;28;20124;-59
2022/07/09 13:35:46;;;;;;;5.75;1.40;;;;;;;;;;5032885;28;20030;-58
2022/07/09 13:38:12;;;;;;;2.17;1.13;;;;;;;;;;5047006;28;20375;-58
2022/07/09 13:40:42;;;;;;;2.15;0.85;;;;;;;;;;5033204;28;20072;-58
2022/07/09 13:43:11;;;;;;;2.17;1.10;;;;;;;;;;5031642;28;20018;-58
2022/07/09 13:45:41;;;;;;;1.63;0.93;;;;;;;;;;5030139;28;20038;-58
2022/07/09 13:48:11;;;;;;;1.50;0.75;;;;;;;;;;5027045;28;20029;-58
2022/07/09 13:50:37;;;;;;;1.83;1.00;;;;;;;;;;5030381;28;20029;-59
2022/07/09 13:53:08;;;;;;;1.40;0.70;;;;;;;;;;5029613;28;20147;-60
2022/07/09 13:55:40;;;;;;;1.48;0.77;;;;;;;;;;5042088;28;20427;-58
2022/07/09 13:58:15;;;;;;;2.22;0.77;;;;;;;;;;5033129;28;20025;-58
2022/07/09 14:00:49;;;;;;;1.92;0.93;;;;;;;;;;5026184;28;20018;-58
2022/07/09 14:03:22;;;;;;;2.10;0.75;;;;;;;;;;5028952;28;20052;-58
2022/07/09 14:05:56;;;;;;;2.95;0.95;;;;;;;;;;5026410;28;20032;-58
2022/07/09 14:08:24;;;;;;;2.20;0.70;;;;;;;;;;5031735;28;20479;-59
2022/07/09 14:10:57;;;;;;;2.70;0.80;;;;;;;;;;5027381;28;20364;-59
2022/07/09 14:13:26;;;;;;;1.80;0.80;;;;;;;;;;5061017;28;20069;-59
2022/07/09 14:15:58;;;;;;;1.40;0.75;;;;;;;;;;5027963;28;20029;-59
2022/07/09 14:18:32;;;;;;;1.55;0.90;;;;;;;;;;5030469;28;20136;-59
2022/07/09 14:21:01;;;;;;;2.72;0.77;;;;;;;;;;5020397;28;20044;-60
2022/07/09 14:23:27;;;;;;;1.52;0.65;;;;;;;;;;5028857;28;20043;-60
2022/07/09 14:26:14;;;;;;;3.38;1.33;;;;;;;;;;5029507;28;20204;-59
2022/07/09 14:28:48;;;;;;;1.90;0.73;;;;;;;;;;5024374;28;20030;-59
2022/07/09 14:31:17;;;;;;;2.00;0.65;;;;;;;;;;5027021;28;20088;-59
2022/07/09 14:33:43;;;;;;;2.65;0.85;;;;;;;;;;5024744;28;20441;-59
2022/07/09 14:36:15;;;;;;;2.67;1.10;;;;;;;;;;5022239;28;20117;-59
2022/07/09 14:38:46;;;;;;;1.70;1.00;;;;;;;;;;5023355;28;20041;-59
2022/07/09 14:41:22;;;;;;;1.95;1.25;;;;;;;;;;5026412;28;20054;-59
2022/07/09 14:43:54;;;;;;;3.00;1.27;;;;;;;;;;5021613;28;20018;-59
2022/07/09 14:46:20;;;;;;;1.80;1.00;;;;;;;;;;5031573;28;20033;-59
2022/07/09 14:48:46;;;;;;;1.90;1.17;;;;;;;;;;5031040;28;20025;-59
2022/07/09 14:51:19;;;;;;;1.90;1.20;;;;;;;;;;5027899;28;20021;-59
2022/07/09 14:53:48;;;;;;;3.42;1.20;;;;;;;;;;5028415;28;20049;-59
2022/07/09 14:56:21;;;;;;;1.52;1.00;;;;;;;;;;5026610;28;20324;-59
2022/07/09 14:58:50;;;;;;;1.95;1.00;;;;;;;;;;5027600;28;20037;-59
2022/07/09 15:01:31;;;;;;;2.00;1.17;;;;;;;;;;5027976;28;20033;-59
2022/07/09 15:04:06;;;;;;;1.90;1.10;;;;;;;;;;5030988;28;20072;-59
2022/07/09 15:06:38;;;;;;;1.95;1.05;;;;;;;;;;5030774;28;20068;-59
2022/07/09 15:09:09;;;;;;;3.13;1.17;;;;;;;;;;5033067;28;20529;-59
2022/07/09 15:11:41;;;;;;;2.20;1.25;;;;;;;;;;5029363;28;20499;-59
2022/07/09 15:14:16;;;;;;;1.52;1.00;;;;;;;;;;5028443;28;20025;-60
2022/07/09 15:16:45;;;;;;;1.88;1.10;;;;;;;;;;5023617;28;20503;-59
2022/07/09 15:19:15;;;;;;;2.00;1.17;;;;;;;;;;5030235;28;20064;-59
2022/07/09 15:21:49;;;;;;;1.80;0.93;;;;;;;;;;5027999;28;20113;-60
2022/07/09 15:24:31;;;;;;;2.53;1.23;;;;;;;;;;5027676;28;20327;-59
2022/07/09 15:27:00;;;;;;;2.75;1.15;;;;;;;;;;5041311;28;20037;-59
2022/07/09 15:29:33;;;;;;;1.98;1.08;;;;;;;;;;5059051;28;20041;-60
2022/07/09 15:32:01;;;;;;;2.40;1.58;;;;;;;;;;5029750;28;20428;-59
2022/07/09 15:34:32;;;;;;;1.55;1.02;;;;;;;;;;5023409;28;20379;-59
2022/07/09 15:37:18;;;;;;;1.63;1.33;;;;;;;;;;5023690;28;20060;-59
2022/07/09 15:39:52;;;;;;;2.50;1.40;;;;;;;;;;5028639;28;20072;-59
2022/07/09 15:42:33;;;;;;;1.88;1.08;;;;;;;;;;5028334;28;20640;-59
2022/07/09 15:44:58;;;;;;;;;;;;;;;;;;5028922;28;20018;-59
2022/07/09 15:47:25;;;;;;;2.63;1.10;;;;;;;;;;5027289;28;20370;-59
2022/07/09 15:50:00;;;;;;;2.35;1.08;;;;;;;;;;5025739;28;20036;-59
2022/07/09 15:52:40;;;;;;;1.67;0.73;;;;;;;;;;5025587;28;20033;-59
2022/07/09 15:55:12;;;;;;;2.05;1.15;;;;;;;;;;5021479;28;20519;-59
2022/07/09 15:57:38;;;;;;;2.33;1.45;;;;;;;;;;5029930;28;20120;-59
2022/07/09 16:00:26;;;;;;;3.58;1.70;;;;;;;;;;5025522;28;20038;-59
2022/07/09 16:02:55;;;;;;;5.20;1.67;;;;;;;;;;5017949;28;20041;-60
2022/07/09 16:05:32;;;;;;;2.50;1.50;;;;;;;;;;5022497;28;20029;-60
2022/07/09 16:08:02;;;;;;;2.75;1.80;;;;;;;;;;5022407;28;20022;-59
2022/07/09 16:10:36;;;;;;;2.05;1.52;;;;;;;;;;5023247;28;20144;-59
2022/07/09 16:13:02;;;;;;;4.40;1.30;;;;;;;;;;5020978;28;20033;-59
2022/07/09 16:15:36;;;;;;;2.50;1.55;;;;;;;;;;5031970;28;20057;-59
2022/07/09 16:18:11;;;;;;;4.72;1.60;;;;;;;;;;5026459;28;20041;-59
2022/07/09 16:20:42;;;;;;;2.85;1.95;;;;;;;;;;5021704;28;20034;-59
2022/07/09 16:23:08;;;;;;;;;;;;;;;;;;5015964;28;20387;-59
2022/07/09 16:25:39;;;;;;;4.35;1.38;;;;;;;;;;5022207;28;19917;-59
2022/07/09 16:28:09;;;;;;;3.15;1.45;;;;;;;;;;5019424;28;20049;-59
2022/07/09 16:30:45;;;;;;;2.15;1.35;;;;;;;;;;5024630;28;20036;-59
2022/07/09 16:33:20;;;;;;;3.05;1.23;;;;;;;;;;5020070;28;20109;-59
2022/07/09 16:35:47;;;;;;;5.78;2.45;;;;;;;;;;5022660;28;20095;-59
2022/07/09 16:38:26;;;;;;;4.00;1.83;;;;;;;;;;5016209;28;20032;-60
2022/07/09 16:40:53;;;;;;;3.70;2.22;;;;;;;;;;5015880;28;20056;-59
2022/07/09 16:43:24;;;;;;;3.85;1.40;;;;;;;;;;5021572;28;20517;-59
2022/07/09 16:46:08;;;;;;;2.38;1.65;;;;;;;;;;5024222;28;20084;-59
2022/07/09 16:48:41;;;;;;;2.65;1.60;;;;;;;;;;5022908;28;20029;-59
2022/07/09 16:51:09;;;;;;;2.25;1.55;;;;;;;;;;5019367;28;20033;-59
2022/07/09 16:53:38;;;;;;;2.55;1.75;;;;;;;;;;5026646;28;20136;-59
2022/07/09 16:56:12;;;;;;;2.47;1.98;;;;;;;;;;5028274;28;20033;-59
2022/07/09 16:58:39;;;;;;;2.22;1.48;;;;;;;;;;5022938;28;20037;-59
2022/07/09 17:01:11;;;;;;;2.10;1.58;;;;;;;;;;5019562;28;20108;-59
2022/07/09 17:03:51;;;;;;;2.38;1.83;;;;;;;;;;5024221;28;20036;-59
2022/07/09 17:06:21;;;;;;;1.88;1.50;;;;;;;;;;5024555;28;20032;-59
2022/07/09 17:08:59;;;;;;;4.20;2.15;;;;;;;;;;5054957;28;20179;-59
2022/07/09 17:11:25;;;;;;;2.30;1.70;;;;;;;;;;5021337;28;20064;-59
2022/07/09 17:13:57;;;;;;;2.38;1.42;;;;;;;;;;5020003;28;20033;-59
2022/07/09 17:16:24;;;;;;;3.25;1.75;;;;;;;;;;5026144;28;20411;-59
2022/07/09 17:19:01;;;;;;;2.72;1.88;;;;;;;;;;5024248;28;20495;-59
2022/07/09 17:21:29;;;;;;;2.10;1.50;;;;;;;;;;5019171;28;20037;-59
2022/07/09 17:24:05;;;;;;;2.75;1.60;;;;;;;;;;5022640;28;20021;-59
2022/07/09 17:26:59;;;;;;;2.15;1.50;;;;;;;;;;5023471;28;20037;-59
2022/07/09 17:29:26;;;;;;;3.83;1.58;;;;;;;;;;5025841;28;20038;-59
2022/07/09 17:32:06;;;;;;;3.92;1.58;;;;;;;;;;5026914;28;20387;-59
2022/07/09 17:34:38;;;;;;;2.55;1.95;;;;;;;;;;5027164;28;20044;-59
2022/07/09 17:37:22;;;;;;;3.13;2.30;;;;;;;;;;5025321;28;20076;-59
2022/07/09 17:39:48;;;;;;;2.75;2.10;;;;;;;;;;5059317;28;20033;-59
2022/07/09 17:42:30;;;;;;;2.05;1.33;;;;;;;;;;5023335;28;20483;-59
2022/07/09 17:45:01;;;;;;;3.33;1.98;;;;;;;;;;5026428;28;20115;-59
2022/07/09 17:47:36;;;;;;;3.13;1.88;;;;;;;;;;5028717;28;20444;-59
2022/07/09 17:50:10;;;;;;;2.33;1.75;;;;;;;;;;5017989;28;20545;-59